< < Back
Terminal Aerodrome Forecast


Current Version              Previous Versions:   1  2  3  4  5  6  7  8  9  

Terminal Aerodrome Forecast

206
FTUS42 KGSP 281729
TAFGSP
TAF
KGSP 281729Z 2818/2918 VRB04KT P6SM SKC
     FM282000 24004KT P6SM SKC
     FM282300 18004KT P6SM SKC
     FM290400 00000KT P6SM FEW250
     FM291400 21007KT P6SM SCT160=



Latest METAR

689
SAUS70 KWBC 290400 RRD
MTRGSP
METAR KGSP 290353Z 18003KT 10SM CLR 02/M08 A3029 RMK AO2 SLP260
T00171083


USA.gov is the U.S. government's official web portal to all federal, state and local government web resources and services.